Latest Conditions
At L.F.Wade Int. Airport
Recorded at 1:55 am
Showers
Temp.: 
18°C/64°F
Humidity: 
70%
Wind: 
NE 11KT
or 13mph
UV Index: 
0
Island Observations
 
Observations
Monday, April 23, 2018

Observations are in local time and taken at least once an hour, or upon the start and end of specified events such as showers and thunderstorms.

Time Sky / Weather Wind Speed/Gusts Temp. R.H. Pressure
     knots (mph)  °C (°F)  %  mb / "Hg
 01:55 Overcast Showers NE 11/0 (13/0) 18(64) 70 1026 / 30.30
 01:15 Mostly Cloudy Showers ENE 11/0 (13/0) 17(63) 75 1026 / 30.31
 00:55 Mostly Cloudy Showers ENE 8/0 (9/0) 18(64) 73 1026 / 30.31
 00:45 Mostly Cloudy Showers E 9/0 (10/0) 18(64) 72 1026 / 30.31
 23:55 Mostly Cloudy Showers NE 12/0 (14/0) 18(64) 68 1026 / 30.31
 22:55 Mostly Cloudy  NE 10/0 (12/0) 18(64) 71 1027 / 30.32
 21:55 Partly Cloudy  NNE 9/0 (10/0) 18(64) 65 1026 / 30.31
 20:55 Partly Cloudy  NNE 7/0 (8/0) 18(64) 63 1026 / 30.31
 19:55 Mostly Cloudy  N 7/0 (8/0) 18(65) 65 1026 / 30.30
 18:55 Partly Cloudy  NNW 8/0 (9/0) 19(66) 57 1026 / 30.29
 17:55 Partly Cloudy  N 9/0 (10/0) 19(67) 55 1026 / 30.29
 16:55 Partly Cloudy  N 9/0 (10/0) 20(67) 50 1025 / 30.27
 15:55 Partly Cloudy  N 10/0 (12/0) 20(68) 50 1025 / 30.27
 14:55 Few Clouds  N 9/0 (10/0) 20(68) 48 1025 / 30.28
 13:55 Partly Cloudy  N 11/0 (13/0) 20(68) 44 1025 / 30.28
 12:55 Partly Cloudy  N 11/0 (13/0) 20(69) 45 1026 / 30.29
 11:55 Mostly Cloudy  N 10/0 (12/0) 20(69) 40 1026 / 30.30
 10:55 Mostly Cloudy  N 7/0 (8/0) 20(68) 44 1026 / 30.31
 09:55 Mostly Cloudy  N 10/0 (12/0) 19(66) 51 1026 / 30.30
 08:55 Mostly Cloudy  N 9/0 (10/0) 18(65) 54 1026 / 30.30
 07:55 Mostly Cloudy  N 8/0 (9/0) 18(64) 55 1026 / 30.29
 06:55 Mostly Cloudy  NNE 8/0 (9/0) 17(63) 57 1025 / 30.27
 05:55 Mostly Cloudy  NNE 8/0 (9/0) 17(63) 58 1024 / 30.25
 04:55 Mostly Cloudy  NNE 8/0 (9/0) 17(63) 62 1024 / 30.25
 03:55 Mostly Cloudy  N 8/0 (9/0) 17(63) 64 1025 / 30.26
 02:55 Partly Cloudy  NNE 8/0 (9/0) 17(62) 67 1025 / 30.26
 01:55 Mostly Cloudy  NNE 10/0 (12/0) 17(63) 67 1025 / 30.27
 00:55 Mostly Cloudy  NE 7/0 (8/0) 17(62) 65 1025 / 30.28
 23:55 Mostly Cloudy  NE 7/0 (8/0) 17(63) 68 1025 / 30.28
 22:55 Partly Cloudy  NE 8/0 (9/0) 17(63) 67 1026 / 30.29
 21:55 Partly Cloudy  NNE 7/0 (8/0) 18(64) 65 1025 / 30.28
 20:55 Partly Cloudy  N 8/0 (9/0) 18(64) 62 1025 / 30.26
 19:55 Mostly Cloudy  N 9/0 (10/0) 18(64) 60 1024 / 30.25
 18:55 Mostly Cloudy  N 8/0 (9/0) 18(64) 61 1024 / 30.25
 17:55 Mostly Cloudy  NNW 9/0 (10/0) 18(64) 62 1024 / 30.25
 16:55 Mostly Cloudy  N 10/0 (12/0) 20(67) 60 1024 / 30.23
 15:55 Mostly Cloudy  NNW 7/0 (8/0) 19(67) 52 1024 / 30.23
 14:55 Partly Cloudy  NNW 8/0 (9/0) 20(67) 51 1024 / 30.25
 13:55 Partly Cloudy  N 10/0 (12/0) 19(67) 55 1024 / 30.25
 12:55 Partly Cloudy  NNW 10/0 (12/0) 19(67) 53 1024 / 30.25
 11:55 Mostly Cloudy  N 11/0 (13/0) 20(67) 54 1025 / 30.26
 10:55 Partly Cloudy  NNW 10/0 (12/0) 19(65) 53 1024 / 30.25
 09:55 Partly Cloudy  N 8/0 (9/0) 19(65) 53 1024 / 30.24
 08:55 Partly Cloudy  NNW 9/0 (10/0) 18(64) 54 1024 / 30.23
 07:55 Mostly Cloudy  NNW 10/0 (12/0) 17(63) 56 1023 / 30.22
 06:55 Mostly Cloudy  NNW 10/0 (12/0) 17(63) 63 1023 / 30.20
 05:55 Mostly Cloudy  NNW 11/0 (13/0) 18(64) 66 1022 / 30.18
 04:55 Mostly Cloudy  NNW 8/0 (9/0) 18(64) 62 1022 / 30.18
 03:55 Mostly Cloudy  NNW 10/0 (12/0) 18(64) 66 1022 / 30.18
 02:55 Mostly Cloudy  NNW 12/0 (14/0) 18(65) 67 1022 / 30.17
 01:55 Mostly Cloudy  NNW 11/0 (13/0) 18(65) 72 1022 / 30.19
 00:55 Mostly Cloudy  NNW 12/0 (14/0) 19(66) 74 1022 / 30.18
 23:55 Mostly Cloudy  NNW 13/0 (15/0) 19(66) 77 1022 / 30.17
 22:55 Overcast  NNW 11/0 (13/0) 19(66) 84 1022 / 30.17
 21:55 Mostly Cloudy  NNW 11/0 (13/0) 20(68) 85 1021 / 30.16
 20:55 Mostly Cloudy Showers NNW 10/0 (12/0) 20(68) 85 1021 / 30.14
 20:42 Mostly Cloudy Showers NNW 10/0 (12/0) 20(68) 85 1021 / 30.14
 20:38 Mostly Cloudy Showers NNW 12/0 (14/0) 20(68) 87 1021 / 30.14
 20:31 Mostly Cloudy Showers NNW 14/0 (16/0) 20(68) 88 1021 / 30.14
 20:28 Mostly Cloudy Showers W 13/0 (15/0) 20(68) 87 1021 / 30.14
 19:55 Mostly Cloudy  W 10/0 (12/0) 21(70) 85 1020 / 30.12
 18:55 Mostly Cloudy  W 10/0 (12/0) 22(71) 82 1020 / 30.11
 17:55 Few Clouds  W 11/0 (13/0) 23(73) 78 1019 / 30.09
 16:55 Mostly Cloudy  W 13/0 (15/0) 23(73) 77 1019 / 30.08
 16:27 Mostly Cloudy  W 13/0 (15/0) 23(73) 78 1019 / 30.08
 15:55 Partly Cloudy  WSW 13/0 (15/0) 23(74) 73 1019 / 30.08
 14:55 Few Clouds  WSW 14/0 (16/0) 23(74) 72 1019 / 30.08
 13:55 Few Clouds  WSW 14/0 (16/0) 24(74) 73 1020 / 30.11
 12:55 Mostly Cloudy  W 16/0 (18/0) 23(74) 74 1020 / 30.12
 11:55 Mostly Cloudy  WSW 16/0 (18/0) 23(73) 71 1020 / 30.12
 11:39 Mostly Cloudy  WSW 17/0 (20/0) 23(74) 74 1020 / 30.12
 10:55 Mostly Cloudy  WSW 17/0 (20/0) 23(73) 77 1020 / 30.12
 09:55 Few Clouds  WSW 18/0 (21/0) 22(72) 77 1019 / 30.10
 08:55 Mostly Cloudy  WSW 16/0 (18/0) 22(71) 80 1019 / 30.09
 07:55 Mostly Cloudy  WSW 15/0 (17/0) 22(71) 83 1019 / 30.09
 07:21 Mostly Cloudy  SW 12/0 (14/0) 22(71) 91 1019 / 30.08
 06:55 Mostly Cloudy  SW 13/0 (15/0) 21(71) 91 1018 / 30.07
 06:28 Mostly Cloudy Showers SW 13/0 (15/0) 22(71) 90 1018 / 30.06
 06:22 Mostly Cloudy Showers SW 14/0 (16/0) 22(71) 90 1018 / 30.07
 05:55 Mostly Cloudy  SW 15/0 (17/0) 22(71) 89 1018 / 30.06
 04:55 Mostly Cloudy  SW 13/0 (15/0) 22(71) 89 1018 / 30.07
 03:55 Mostly Cloudy  SW 10/0 (12/0) 21(70) 90 1018 / 30.07
 02:55 Mostly Cloudy  SW 13/0 (15/0) 21(70) 87 1019 / 30.09
 01:55 Mostly Cloudy  SW 15/0 (17/0) 21(70) 93 1019 / 30.10
 01:14 Mostly Cloudy  SW 12/0 (14/0) 21(70) 94 1020 / 30.12
 00:55 Mostly Cloudy  SW 13/0 (15/0) 21(70) 93 1020 / 30.12
 23:55 Mostly Cloudy  SSW 14/0 (16/0) 21(70) 93 1020 / 30.13
 22:55 Mostly Cloudy  SSW 13/0 (15/0) 21(70) 91 1021 / 30.15
 21:55 Partly Cloudy  SSW 16/0 (18/0) 21(69) 88 1021 / 30.14
 20:55 Few Clouds  SSW 18/0 (21/0) 21(69) 88 1020 / 30.13
 19:55 Few Clouds  SSW 16/0 (18/0) 21(69) 87 1020 / 30.12
 18:55 Few Clouds  SW 16/0 (18/0) 21(70) 82 1020 / 30.12
 17:55 Few Clouds  SW 17/0 (20/0) 22(72) 76 1020 / 30.12
 16:55 Few Clouds  SSW 17/0 (20/0) 23(73) 72 1020 / 30.12
 15:55 Few Clouds  SW 17/0 (20/0) 22(72) 71 1020 / 30.13
 14:55 Few Clouds  SW 17/0 (20/0) 22(72) 70 1021 / 30.14
 13:55 Few Clouds  SSW 16/0 (18/0) 23(73) 70 1021 / 30.14
 12:55 Few Clouds  SW 17/0 (20/0) 23(73) 66 1021 / 30.15
 12:42 Partly Cloudy  SW 16/0 (18/0) 23(73) 66 1021 / 30.15
 11:55 Mostly Cloudy  WSW 14/0 (16/0) 22(72) 66 1022 / 30.17
Island AWOS